createdAt,value
2019-06-15T00:02:16.193Z,19.40
2019-06-15T00:04:44.874Z,19.30
2019-06-15T00:07:13.645Z,19.30
2019-06-15T00:09:42.334Z,19.30
2019-06-15T00:12:11.026Z,19.20
2019-06-15T00:14:39.706Z,19.20
2019-06-15T00:17:08.550Z,19.10
2019-06-15T00:19:37.234Z,19.10
2019-06-15T00:22:05.919Z,19.00
2019-06-15T00:24:35.741Z,19.00
2019-06-15T00:27:04.883Z,19.00
2019-06-15T00:29:33.645Z,18.90
2019-06-15T00:32:02.407Z,18.90
2019-06-15T00:34:31.091Z,18.80
2019-06-15T00:36:59.849Z,18.80
2019-06-15T00:39:28.495Z,18.80
2019-06-15T00:41:57.199Z,18.70
2019-06-15T00:44:25.878Z,18.70
2019-06-15T00:46:54.774Z,18.80
2019-06-15T00:49:23.457Z,18.70
2019-06-15T00:51:52.145Z,18.70
2019-06-15T00:54:20.861Z,18.70
2019-06-15T00:56:49.883Z,18.60
2019-06-15T00:59:18.602Z,18.50
2019-06-15T01:01:47.771Z,18.50
2019-06-15T01:04:16.455Z,18.50
2019-06-15T01:06:45.146Z,18.50
2019-06-15T01:09:13.874Z,18.40
2019-06-15T01:11:42.559Z,18.40
2019-06-15T01:14:11.251Z,18.40
2019-06-15T01:16:40.431Z,18.40
2019-06-15T01:19:09.518Z,18.40
2019-06-15T01:21:38.202Z,18.40
2019-06-15T01:24:06.920Z,18.30
2019-06-15T01:26:35.648Z,18.30
2019-06-15T01:29:04.390Z,18.30
2019-06-15T01:31:33.124Z,18.30
2019-06-15T01:34:01.857Z,18.30
2019-06-15T01:36:30.521Z,18.30
2019-06-15T01:38:59.419Z,18.30
2019-06-15T01:41:28.143Z,18.30
2019-06-15T01:43:56.839Z,18.30
2019-06-15T01:46:25.537Z,18.30
2019-06-15T01:48:54.660Z,18.30
2019-06-15T01:51:23.622Z,18.30
2019-06-15T01:53:52.642Z,18.30
2019-06-15T01:56:21.335Z,18.30
2019-06-15T01:58:50.001Z,18.30
2019-06-15T02:01:18.648Z,18.40
2019-06-15T02:03:47.414Z,18.50
2019-06-15T02:06:16.077Z,18.50
2019-06-15T02:08:45.050Z,18.50
2019-06-15T02:11:14.026Z,18.50
2019-06-15T02:13:42.642Z,18.50
2019-06-15T02:16:11.324Z,18.50
2019-06-15T02:18:39.986Z,18.50
2019-06-15T02:21:08.667Z,18.40
2019-06-15T02:23:37.468Z,18.40
2019-06-15T02:26:06.178Z,18.40
2019-06-15T02:28:34.863Z,18.30
2019-06-15T02:31:04.287Z,18.30
2019-06-15T02:33:32.965Z,18.30
2019-06-15T02:36:02.037Z,18.50
2019-06-15T02:38:30.851Z,18.60
2019-06-15T02:40:59.547Z,18.70
2019-06-15T02:43:28.218Z,18.70
2019-06-15T02:45:56.951Z,18.90
2019-06-15T02:48:25.729Z,19.00
2019-06-15T02:50:54.514Z,19.00
2019-06-15T02:53:23.230Z,19.00
2019-06-15T02:55:51.837Z,18.90
2019-06-15T02:58:20.574Z,18.90
2019-06-15T03:00:55.487Z,18.90
2019-06-15T03:03:24.271Z,18.80
2019-06-15T04:02:33.103Z,17.60
2019-06-15T04:05:01.817Z,17.60
2019-06-15T04:07:30.858Z,17.60
2019-06-15T04:09:59.490Z,17.70
2019-06-15T04:12:28.190Z,17.70
2019-06-15T04:14:57.314Z,17.60
2019-06-15T04:17:25.991Z,17.70
2019-06-15T04:19:54.745Z,17.60
2019-06-15T04:22:23.746Z,17.60
2019-06-15T04:24:52.441Z,17.60
2019-06-15T04:27:21.113Z,17.60
2019-06-15T04:29:49.854Z,17.60
2019-06-15T04:32:18.536Z,17.60
2019-06-15T04:34:47.221Z,17.60
2019-06-15T04:37:15.942Z,17.60
2019-06-15T04:39:44.625Z,17.60
2019-06-15T04:42:13.311Z,17.60
2019-06-15T04:44:42.033Z,17.60
2019-06-15T04:47:10.722Z,17.60
2019-06-15T04:49:39.403Z,17.60
2019-06-15T04:52:08.134Z,17.50
2019-06-15T04:54:36.822Z,17.60
2019-06-15T04:57:05.517Z,17.60
2019-06-15T04:59:34.230Z,17.60
2019-06-15T05:02:02.923Z,17.70
2019-06-15T05:04:31.606Z,17.70
2019-06-15T05:07:00.677Z,17.70
2019-06-15T05:09:29.717Z,17.80
2019-06-15T05:11:58.389Z,17.80
2019-06-15T05:14:27.107Z,17.90
2019-06-15T05:16:56.091Z,17.90
2019-06-15T05:19:24.786Z,18.00
2019-06-15T05:21:53.513Z,18.00
2019-06-15T05:24:22.194Z,18.00
2019-06-15T05:27:02.966Z,18.10
2019-06-15T05:29:21.258Z,18.10
2019-06-15T05:31:49.942Z,18.10
2019-06-15T05:34:18.474Z,18.10
2019-06-15T05:36:47.129Z,18.10
2019-06-15T05:39:16.150Z,18.10
2019-06-15T05:41:44.911Z,18.20
2019-06-15T05:44:13.646Z,18.20
2019-06-15T05:46:42.326Z,18.20
2019-06-15T05:49:11.011Z,18.20
2019-06-15T05:51:39.730Z,18.20
2019-06-15T05:54:08.524Z,18.20
2019-06-15T05:56:37.205Z,18.20
2019-06-15T05:59:06.128Z,18.30
2019-06-15T06:01:35.187Z,18.30
2019-06-15T06:04:04.548Z,18.30
2019-06-15T06:06:33.322Z,18.30
2019-06-15T06:09:01.858Z,18.30
2019-06-15T06:11:30.562Z,18.40
2019-06-15T06:13:59.338Z,18.40
2019-06-15T06:16:28.061Z,18.50
2019-06-15T06:18:57.404Z,18.50
2019-06-15T06:21:26.051Z,18.50
2019-06-15T06:23:54.666Z,18.60
2019-06-15T06:26:23.347Z,18.60
2019-06-15T06:28:57.302Z,18.70
2019-06-15T06:31:22.732Z,18.70
2019-06-15T06:33:51.494Z,18.70
2019-06-15T06:36:20.210Z,18.80
2019-06-15T06:38:48.906Z,18.80
2019-06-15T06:41:17.582Z,18.90
2019-06-15T06:43:46.322Z,19.00
2019-06-15T06:46:15.006Z,19.00
2019-06-15T06:48:43.783Z,19.10
2019-06-15T06:51:12.785Z,19.10
2019-06-15T06:53:41.466Z,19.20
2019-06-15T06:56:10.354Z,19.20
2019-06-15T06:58:39.084Z,19.20
2019-06-15T07:01:07.763Z,19.30
2019-06-15T07:03:36.455Z,19.30
2019-06-15T07:06:05.472Z,19.40
2019-06-15T07:08:34.265Z,19.40
2019-06-15T07:11:05.176Z,19.40
2019-06-15T07:13:34.218Z,19.40
2019-06-15T07:16:02.917Z,19.50
2019-06-15T07:18:31.722Z,19.50
2019-06-15T07:21:02.262Z,19.60
2019-06-15T07:23:31.956Z,19.60
2019-06-15T07:26:00.941Z,19.70
2019-06-15T07:28:29.658Z,19.70
2019-06-15T07:30:58.290Z,19.80
2019-06-15T07:33:26.979Z,19.70
2019-06-15T07:35:56.043Z,19.80
2019-06-15T07:38:24.734Z,19.70
2019-06-15T07:40:53.446Z,19.60
2019-06-15T07:43:22.125Z,19.60
2019-06-15T07:45:50.843Z,19.60
2019-06-15T07:48:19.626Z,19.60
2019-06-15T07:50:48.370Z,19.60
2019-06-15T07:53:17.067Z,19.70
2019-06-15T07:55:45.738Z,19.70
2019-06-15T07:58:24.295Z,19.70
2019-06-15T08:00:44.800Z,19.80
2019-06-15T08:03:13.546Z,19.90
2019-06-15T08:05:42.280Z,19.90
2019-06-15T08:08:11.124Z,19.90
2019-06-15T08:10:39.982Z,20.00
2019-06-15T08:13:08.715Z,19.90
2019-06-15T08:15:38.714Z,19.90
2019-06-15T08:18:09.709Z,19.90
2019-06-15T08:20:38.382Z,19.90
2019-06-15T08:23:07.070Z,19.80
2019-06-15T08:25:36.022Z,19.70
2019-06-15T08:28:04.842Z,19.70
2019-06-15T08:30:42.403Z,19.70
2019-06-15T08:33:11.530Z,19.80
2019-06-15T08:35:40.589Z,19.90
2019-06-15T08:38:09.278Z,20.00
2019-06-15T08:40:38.056Z,20.00
2019-06-15T08:43:06.690Z,20.00
2019-06-15T08:45:35.374Z,20.10
2019-06-15T08:48:04.583Z,20.30
2019-06-15T08:55:29.986Z,20.40
2019-06-15T09:15:25.722Z,20.50
2019-06-15T09:17:54.409Z,20.30
2019-06-15T09:20:23.095Z,20.30
2019-06-15T09:22:51.903Z,20.30
2019-06-15T09:25:20.583Z,20.30
2019-06-15T09:27:49.272Z,20.40
2019-06-15T09:30:18.687Z,20.30
2019-06-15T09:32:47.697Z,20.30
2019-06-15T09:35:16.382Z,20.40
2019-06-15T09:37:45.102Z,20.50
2019-06-15T09:40:14.050Z,20.50
2019-06-15T09:42:42.735Z,20.60
2019-06-15T09:45:12.150Z,20.50
2019-06-15T09:47:40.919Z,20.60
2019-06-15T09:50:09.622Z,20.60
2019-06-15T09:52:38.641Z,20.60
2019-06-15T09:55:07.945Z,20.50
2019-06-15T09:57:36.625Z,20.40
2019-06-15T10:00:10.750Z,20.50
2019-06-15T10:02:39.433Z,20.50
2019-06-15T10:05:08.422Z,20.40
2019-06-15T10:07:37.143Z,20.50
2019-06-15T10:10:07.627Z,20.50
2019-06-15T10:12:36.309Z,20.60
2019-06-15T10:15:06.998Z,20.50
2019-06-15T10:17:35.615Z,20.70
2019-06-15T10:20:07.313Z,20.80
2019-06-15T10:22:36.141Z,20.90
2019-06-15T10:25:06.228Z,20.90
2019-06-15T10:27:34.911Z,20.90
2019-06-15T10:30:05.545Z,20.90
2019-06-15T10:32:34.217Z,21.00
2019-06-15T10:35:02.894Z,21.20
2019-06-15T10:37:31.633Z,21.30
2019-06-15T10:40:00.316Z,21.30
2019-06-15T10:42:29.003Z,21.30
2019-06-15T10:44:57.741Z,21.30
2019-06-15T10:47:26.755Z,21.40
2019-06-15T10:49:55.714Z,21.40
2019-06-15T10:52:24.434Z,21.50
2019-06-15T10:54:54.623Z,21.40
2019-06-15T10:57:23.288Z,21.20
2019-06-15T10:59:57.165Z,21.20
2019-06-15T11:02:22.645Z,21.20
2019-06-15T11:04:51.327Z,21.30
2019-06-15T11:07:20.133Z,21.30
2019-06-15T11:09:48.813Z,21.30
2019-06-15T11:12:17.493Z,21.40
2019-06-15T11:14:46.221Z,21.40
2019-06-15T11:17:14.927Z,21.50
2019-06-15T11:19:43.592Z,21.60
2019-06-15T11:22:12.302Z,21.70
2019-06-15T11:24:40.997Z,21.80
2019-06-15T11:27:09.687Z,21.90
2019-06-15T11:29:38.477Z,22.00
2019-06-15T11:32:07.158Z,22.10
2019-06-15T11:34:35.842Z,22.10
2019-06-15T11:37:04.571Z,22.00
2019-06-15T11:39:33.257Z,22.00
2019-06-15T11:42:01.954Z,22.00
2019-06-15T11:44:30.669Z,22.00
2019-06-15T11:46:59.354Z,22.00
2019-06-15T11:49:27.962Z,22.00
2019-06-15T11:51:56.697Z,22.00
2019-06-15T11:54:25.386Z,22.10
2019-06-15T11:56:54.351Z,22.20
2019-06-15T11:59:23.536Z,22.30
2019-06-15T12:01:52.290Z,22.40
2019-06-15T12:04:20.978Z,22.50
2019-06-15T12:06:49.626Z,22.40
2019-06-15T12:09:18.310Z,22.40
2019-06-15T12:11:46.992Z,22.50
2019-06-15T12:14:15.747Z,22.40
2019-06-15T12:16:44.629Z,22.50
2019-06-15T12:19:13.322Z,22.60
2019-06-15T12:21:42.218Z,22.70
2019-06-15T12:24:10.901Z,22.70
2019-06-15T12:26:39.582Z,22.60
2019-06-15T12:29:08.390Z,22.50
2019-06-15T12:31:37.082Z,22.40
2019-06-15T12:34:05.770Z,22.50
2019-06-15T12:36:34.493Z,22.60
2019-06-15T12:39:03.174Z,22.60
2019-06-15T12:41:31.858Z,22.80
2019-06-15T12:44:00.595Z,22.90
2019-06-15T12:46:29.383Z,23.00
2019-06-15T12:48:58.363Z,23.00
2019-06-15T12:51:27.574Z,23.10
2019-06-15T12:53:56.254Z,23.10
2019-06-15T12:56:25.248Z,23.10
2019-06-15T12:58:54.033Z,23.10
2019-06-15T13:01:22.713Z,23.10
2019-06-15T13:03:51.347Z,23.20
2019-06-15T13:06:20.082Z,23.20
2019-06-15T13:08:48.777Z,23.30
2019-06-15T13:11:17.580Z,23.40
2019-06-15T13:13:46.445Z,23.50
2019-06-15T13:16:15.086Z,23.70
2019-06-15T13:18:43.802Z,23.90
2019-06-15T13:21:12.451Z,24.10
2019-06-15T13:23:41.132Z,24.10
2019-06-15T13:26:09.813Z,24.40
2019-06-15T13:28:38.699Z,24.60
2019-06-15T13:31:17.641Z,24.70
2019-06-15T13:33:37.794Z,24.70
2019-06-15T13:36:06.510Z,24.90
2019-06-15T13:38:35.321Z,25.50
2019-06-15T13:41:04.491Z,25.70
2019-06-15T13:43:33.202Z,25.70
2019-06-15T13:46:01.958Z,25.70
2019-06-15T13:48:30.567Z,25.70
2019-06-15T13:50:59.598Z,25.70
2019-06-15T13:53:28.282Z,25.90
2019-06-15T13:55:56.968Z,26.20
2019-06-15T13:58:25.690Z,26.40
2019-06-15T14:00:54.397Z,26.10
2019-06-15T14:03:23.463Z,26.10
2019-06-15T14:05:52.176Z,26.50
2019-06-15T14:08:20.858Z,26.80
2019-06-15T14:10:49.470Z,27.40
2019-06-15T14:13:18.286Z,27.90
2019-06-15T14:15:46.989Z,28.40
2019-06-15T14:18:15.682Z,28.80
2019-06-15T14:20:44.488Z,29.20
2019-06-15T14:23:13.195Z,29.20
2019-06-15T14:25:42.203Z,29.60
2019-06-15T14:28:11.180Z,29.90
2019-06-15T14:30:40.280Z,30.10
2019-06-15T14:33:08.966Z,30.20
2019-06-15T14:35:37.763Z,30.20
2019-06-15T14:38:06.442Z,30.80
2019-06-15T14:40:35.138Z,30.80
2019-06-15T14:43:04.029Z,31.10
2019-06-15T14:45:32.713Z,31.40
2019-06-15T14:48:01.416Z,31.40
2019-06-15T14:50:30.114Z,31.10
2019-06-15T14:52:58.843Z,30.50
2019-06-15T14:55:27.828Z,29.80
2019-06-15T14:57:56.718Z,29.40
2019-06-15T15:00:25.505Z,29.40
2019-06-15T15:02:55.951Z,29.20
2019-06-15T15:05:27.321Z,29.40
2019-06-15T15:07:56.257Z,29.60
2019-06-15T15:10:26.633Z,29.70
2019-06-15T15:12:56.666Z,29.50
2019-06-15T15:15:25.576Z,29.00
2019-06-15T15:17:54.269Z,29.20
2019-06-15T15:20:22.980Z,29.20
2019-06-15T15:22:53.174Z,28.50
2019-06-15T15:25:21.954Z,28.20
2019-06-15T15:27:51.000Z,27.40
2019-06-15T15:30:36.351Z,26.90
2019-06-15T15:33:06.786Z,26.50
2019-06-15T15:35:37.233Z,26.20
2019-06-15T15:38:06.292Z,25.70
2019-06-15T15:40:36.502Z,25.50
2019-06-15T15:43:06.912Z,25.30
2019-06-15T15:45:37.017Z,25.20
2019-06-15T15:48:06.909Z,25.20
2019-06-15T15:50:37.019Z,25.20
2019-06-15T15:53:05.924Z,24.90
2019-06-15T15:55:35.033Z,24.70
2019-06-15T15:58:03.677Z,24.60
2019-06-15T16:00:35.951Z,24.70
2019-06-15T16:03:07.000Z,24.50
2019-06-15T16:05:37.187Z,24.60
2019-06-15T16:08:06.707Z,24.50
2019-06-15T16:10:37.341Z,24.50
2019-06-15T16:13:06.497Z,24.20
2019-06-15T16:15:37.136Z,24.10
2019-06-15T16:18:06.840Z,24.10
2019-06-15T16:20:36.999Z,24.00
2019-06-15T16:23:07.532Z,24.00
2019-06-15T16:25:37.214Z,23.90
2019-06-15T16:28:07.043Z,23.80
2019-06-15T16:33:07.581Z,23.80
2019-06-15T16:35:36.387Z,23.90
2019-06-15T16:38:06.947Z,23.90
2019-06-15T16:40:39.510Z,23.90
2019-06-15T16:43:08.694Z,23.90
2019-06-15T16:45:37.812Z,23.90
2019-06-15T16:48:06.830Z,23.90
2019-06-15T16:50:36.585Z,23.90
2019-06-15T16:53:05.794Z,24.00
2019-06-15T16:55:36.897Z,24.00
2019-06-15T16:58:07.522Z,24.00
2019-06-15T17:00:36.388Z,23.90
2019-06-15T17:03:20.265Z,23.90
2019-06-15T17:05:36.628Z,23.90
2019-06-15T17:08:06.956Z,23.90
2019-06-15T17:10:41.047Z,23.90
2019-06-15T17:13:10.038Z,24.00
2019-06-15T17:15:39.106Z,24.00
2019-06-15T17:18:08.285Z,23.90
2019-06-15T17:20:50.777Z,23.90
2019-06-15T17:23:19.595Z,23.90
2019-06-15T17:25:48.875Z,23.90
2019-06-15T17:28:17.639Z,23.80
2019-06-15T17:30:46.619Z,23.70
2019-06-15T17:33:16.565Z,23.70
2019-06-15T17:35:56.266Z,23.60
2019-06-15T17:38:16.754Z,23.60
2019-06-15T17:40:46.181Z,23.50
2019-06-15T17:43:16.140Z,23.40
2019-06-15T17:45:46.890Z,23.30
2019-06-15T17:48:17.350Z,23.20
2019-06-15T17:50:47.677Z,23.10
2019-06-15T17:53:17.732Z,23.00
2019-06-15T17:55:46.825Z,22.80
2019-06-15T17:58:16.903Z,22.70
2019-06-15T18:00:49.140Z,22.60
2019-06-15T18:03:17.852Z,22.60
2019-06-15T18:05:47.973Z,22.60
2019-06-15T18:08:17.005Z,22.60
2019-06-15T18:10:47.596Z,22.60
2019-06-15T18:13:16.937Z,22.60
2019-06-15T18:15:47.641Z,22.60
2019-06-15T18:18:17.246Z,22.60
2019-06-15T18:20:46.140Z,22.60
2019-06-15T18:23:17.475Z,22.50
2019-06-15T18:25:46.933Z,22.40
2019-06-15T18:28:17.456Z,22.30
2019-06-15T18:30:47.365Z,21.70
2019-06-15T18:33:17.314Z,21.00
2019-06-15T18:35:47.499Z,20.10
2019-06-15T18:38:16.582Z,19.50
2019-06-15T18:40:45.622Z,18.30
2019-06-15T18:43:16.428Z,17.30
2019-06-15T18:45:46.926Z,16.30
2019-06-15T18:48:16.846Z,16.10
2019-06-15T18:50:45.481Z,16.00
2019-06-15T18:53:14.210Z,15.70
2019-06-15T18:55:42.886Z,15.80
2019-06-15T18:58:12.005Z,15.80
2019-06-15T19:00:41.173Z,15.60
2019-06-15T19:03:09.954Z,15.70
2019-06-15T19:05:38.775Z,15.70
2019-06-15T19:08:07.491Z,15.70
2019-06-15T19:10:37.399Z,15.60
2019-06-15T19:13:07.666Z,15.60
2019-06-15T19:15:37.173Z,15.60
2019-06-15T19:18:07.338Z,15.50
2019-06-15T19:20:37.147Z,15.50
2019-06-15T19:23:07.128Z,15.60
2019-06-15T19:25:36.565Z,15.50
2019-06-15T19:28:05.904Z,15.50
2019-06-15T19:30:37.082Z,15.60
2019-06-15T19:33:05.409Z,15.70
2019-06-15T19:35:36.241Z,15.60
2019-06-15T19:38:06.258Z,15.60
2019-06-15T19:40:37.581Z,15.60
2019-06-15T19:43:06.568Z,15.70
2019-06-15T19:45:37.124Z,15.70
2019-06-15T19:48:06.613Z,15.80
2019-06-15T19:50:36.204Z,15.70
2019-06-15T19:53:07.051Z,15.70
2019-06-15T19:55:36.224Z,15.70
2019-06-15T19:58:07.095Z,15.70
2019-06-15T20:00:36.610Z,15.70
2019-06-15T20:03:07.085Z,15.60
2019-06-15T20:05:37.122Z,15.60
2019-06-15T20:08:07.031Z,15.60
2019-06-15T20:10:37.245Z,15.60
2019-06-15T20:13:07.208Z,15.70
2019-06-15T20:15:37.775Z,15.70
2019-06-15T20:18:07.235Z,15.60
2019-06-15T20:20:36.928Z,15.60
2019-06-15T20:23:07.218Z,15.50
2019-06-15T20:25:36.903Z,15.50
2019-06-15T20:28:07.047Z,15.50
2019-06-15T20:30:37.067Z,15.40
2019-06-15T20:33:07.775Z,15.30
2019-06-15T20:35:36.470Z,15.30
2019-06-15T20:38:05.186Z,15.20
2019-06-15T20:40:36.233Z,15.20
2019-06-15T20:43:04.346Z,15.20
2019-06-15T20:45:33.073Z,15.20
2019-06-15T20:48:01.821Z,15.20
2019-06-15T20:50:30.513Z,15.20
2019-06-15T20:52:59.266Z,15.20
2019-06-15T20:55:28.270Z,15.20
2019-06-15T20:57:57.069Z,15.20
2019-06-15T21:00:26.478Z,15.20
2019-06-15T21:02:56.280Z,15.30
2019-06-15T21:05:34.799Z,15.40
2019-06-15T21:07:57.621Z,15.40
2019-06-15T21:10:26.442Z,15.30
2019-06-15T21:12:55.233Z,15.30
2019-06-15T21:15:27.304Z,15.30
2019-06-15T21:17:57.126Z,15.30
2019-06-15T21:20:26.774Z,15.40
2019-06-15T21:22:57.231Z,15.50
2019-06-15T21:25:26.451Z,15.50
2019-06-15T21:27:56.727Z,15.50
2019-06-15T21:30:27.040Z,15.50
2019-06-15T21:32:56.219Z,15.50
2019-06-15T21:35:26.784Z,15.50
2019-06-15T21:37:57.155Z,15.50
2019-06-15T21:40:27.295Z,15.50
2019-06-15T21:42:56.445Z,15.60
2019-06-15T21:45:25.203Z,15.60
2019-06-15T21:47:55.974Z,15.60
2019-06-15T21:50:26.665Z,15.50
2019-06-15T21:52:56.492Z,15.60
2019-06-15T21:55:26.861Z,15.50
2019-06-15T21:57:56.401Z,15.60
2019-06-15T22:00:29.923Z,15.60
2019-06-15T22:03:01.377Z,15.50
2019-06-15T22:05:28.940Z,15.50
2019-06-15T22:07:57.666Z,15.40
2019-06-15T22:10:26.602Z,15.40
2019-06-15T22:12:57.274Z,15.50
2019-06-15T22:15:26.569Z,15.50
2019-06-15T22:17:55.371Z,15.50
2019-06-15T22:20:26.334Z,15.50
2019-06-15T22:22:54.802Z,15.50
2019-06-15T22:25:23.427Z,15.60
2019-06-15T22:27:52.105Z,15.70
2019-06-15T22:30:22.262Z,15.60
2019-06-15T22:32:51.186Z,15.60
2019-06-15T22:35:19.875Z,15.60
2019-06-15T22:37:48.749Z,15.60
2019-06-15T22:40:17.886Z,15.60
2019-06-15T22:42:47.151Z,15.60
2019-06-15T22:45:17.259Z,15.70
2019-06-15T22:47:46.880Z,15.60
2019-06-15T22:50:16.382Z,15.60
2019-06-15T22:52:47.191Z,15.60
2019-06-15T22:55:16.545Z,15.60
2019-06-15T22:57:46.133Z,15.60
2019-06-15T23:00:17.179Z,15.70
2019-06-15T23:02:46.124Z,15.70
2019-06-15T23:05:17.225Z,15.70
2019-06-15T23:07:47.163Z,15.70
2019-06-15T23:10:16.691Z,15.70
2019-06-15T23:12:46.485Z,15.80
2019-06-15T23:15:17.436Z,15.80
2019-06-15T23:17:46.655Z,15.80
2019-06-15T23:20:17.134Z,15.80
2019-06-15T23:22:46.722Z,15.70
2019-06-15T23:25:16.847Z,15.80
2019-06-15T23:27:46.971Z,15.70
2019-06-15T23:30:16.323Z,15.70
2019-06-15T23:35:25.999Z,15.70
2019-06-15T23:37:55.863Z,15.70
2019-06-15T23:40:29.470Z,15.70
2019-06-15T23:42:58.238Z,15.70
2019-06-15T23:45:27.067Z,15.70
2019-06-15T23:47:57.473Z,15.70
2019-06-15T23:50:26.629Z,15.70
2019-06-15T23:52:55.450Z,15.60
2019-06-15T23:55:26.617Z,15.60
2019-06-15T23:57:56.883Z,15.60
